createdAt,value
2017-09-14T00:00:53.742Z,0
2017-09-14T00:02:02.701Z,0
2017-09-14T00:03:11.979Z,0
2017-09-14T00:04:20.947Z,0
2017-09-14T00:05:29.933Z,0
2017-09-14T00:06:38.579Z,0
2017-09-14T00:07:47.222Z,0
2017-09-14T00:08:56.186Z,0
2017-09-14T00:10:04.829Z,0
2017-09-14T00:11:14.416Z,0
2017-09-14T00:12:23.371Z,0
2017-09-14T00:13:32.327Z,0
2017-09-14T00:14:41.282Z,0
2017-09-14T00:15:50.873Z,0
2017-09-14T00:17:00.170Z,0
2017-09-14T00:18:09.138Z,0
2017-09-14T00:19:18.101Z,0
2017-09-14T00:20:27.373Z,0
2017-09-14T00:21:36.669Z,0
2017-09-14T00:22:45.623Z,0
2017-09-14T00:23:54.894Z,0
2017-09-14T00:25:05.116Z,0
2017-09-14T00:26:14.391Z,0
2017-09-14T00:27:23.665Z,0
2017-09-14T00:28:32.620Z,0
2017-09-14T00:29:41.903Z,0
2017-09-14T00:30:51.499Z,0
2017-09-14T00:32:00.144Z,0
2017-09-14T00:33:09.090Z,0
2017-09-14T00:34:17.736Z,0
2017-09-14T00:35:26.382Z,0
2017-09-14T00:36:35.346Z,0
2017-09-14T00:37:43.991Z,0
2017-09-14T00:38:52.636Z,0
2017-09-14T00:40:01.917Z,0
2017-09-14T00:41:10.570Z,0
2017-09-14T00:42:20.489Z,0
2017-09-14T00:43:30.087Z,0
2017-09-14T00:44:40.003Z,0
2017-09-14T00:45:48.960Z,0
2017-09-14T00:46:58.238Z,0
2017-09-14T00:48:07.509Z,0
2017-09-14T00:49:16.155Z,0
2017-09-14T00:50:25.419Z,0
2017-09-14T00:51:34.683Z,0
2017-09-14T00:52:44.604Z,0
2017-09-14T00:53:53.869Z,0
2017-09-14T00:55:03.147Z,0
2017-09-14T00:56:12.742Z,0
2017-09-14T00:57:22.332Z,0
2017-09-14T00:58:31.299Z,0
2017-09-14T00:59:40.898Z,0
2017-09-14T01:00:49.860Z,0
2017-09-14T01:01:58.507Z,0
2017-09-14T01:03:08.104Z,0
2017-09-14T01:04:17.715Z,0
2017-09-14T01:05:26.368Z,0
2017-09-14T01:06:35.320Z,0
2017-09-14T01:07:44.587Z,0
2017-09-14T01:08:53.618Z,0
2017-09-14T01:10:02.888Z,0
2017-09-14T01:11:12.164Z,0
2017-09-14T01:12:21.133Z,0
2017-09-14T01:13:29.778Z,0
2017-09-14T01:14:39.063Z,0
2017-09-14T01:15:48.345Z,0
2017-09-14T01:16:57.622Z,0
2017-09-14T01:18:06.590Z,0
2017-09-14T01:19:15.870Z,0
2017-09-14T01:20:24.881Z,0
2017-09-14T01:21:33.542Z,0
2017-09-14T01:22:42.506Z,0
2017-09-14T01:23:51.459Z,0
2017-09-14T01:25:01.369Z,0
2017-09-14T01:26:10.326Z,0
2017-09-14T01:27:19.610Z,0
2017-09-14T01:28:28.887Z,0
2017-09-14T01:29:37.848Z,0
2017-09-14T01:31:19.218Z,0
2017-09-14T01:32:27.869Z,0
2017-09-14T01:33:37.146Z,0
2017-09-14T01:34:46.221Z,0
2017-09-14T01:35:54.864Z,0
2017-09-14T01:37:03.822Z,0
2017-09-14T01:38:12.488Z,0
2017-09-14T01:39:21.452Z,0
2017-09-14T01:40:30.403Z,0
2017-09-14T01:41:40.618Z,0
2017-09-14T01:42:49.265Z,0
2017-09-14T01:43:58.285Z,0
2017-09-14T01:45:07.272Z,0
2017-09-14T01:46:17.798Z,0
2017-09-14T01:47:26.761Z,0
2017-09-14T01:48:35.721Z,0
2017-09-14T01:49:44.370Z,0
2017-09-14T01:50:53.637Z,0
2017-09-14T01:52:02.689Z,0
2017-09-14T01:53:11.964Z,0
2017-09-14T01:54:21.234Z,0
2017-09-14T01:55:30.193Z,0
2017-09-14T01:56:39.216Z,0
2017-09-14T01:57:49.016Z,0
2017-09-14T01:58:57.985Z,0
2017-09-14T02:00:07.268Z,0
2017-09-14T02:01:16.227Z,0
2017-09-14T02:02:25.187Z,0
2017-09-14T02:03:34.926Z,0
2017-09-14T02:04:43.906Z,0
2017-09-14T02:05:52.879Z,0
2017-09-14T02:07:01.522Z,0
2017-09-14T02:08:10.482Z,0
2017-09-14T02:09:19.453Z,0
2017-09-14T02:10:28.726Z,0
2017-09-14T02:11:38.636Z,0
2017-09-14T02:12:47.903Z,0
2017-09-14T02:13:57.498Z,0
2017-09-14T02:15:06.456Z,0
2017-09-14T02:16:15.098Z,0
2017-09-14T02:17:24.053Z,0
2017-09-14T02:18:33.340Z,0
2017-09-14T02:19:42.298Z,0
2017-09-14T02:20:51.682Z,0
2017-09-14T02:22:00.665Z,0
2017-09-14T02:23:09.626Z,0
2017-09-14T02:24:18.265Z,0
2017-09-14T02:25:27.218Z,0
2017-09-14T02:26:36.552Z,0
2017-09-14T02:27:45.836Z,0
2017-09-14T02:28:54.788Z,0
2017-09-14T02:30:04.389Z,0
2017-09-14T02:31:13.364Z,0
2017-09-14T02:32:22.472Z,0
2017-09-14T02:33:31.131Z,0
2017-09-14T02:34:40.106Z,0
2017-09-14T02:35:49.147Z,0
2017-09-14T02:36:58.122Z,0
2017-09-14T02:38:06.930Z,0
2017-09-14T02:39:16.219Z,0
2017-09-14T02:40:25.179Z,0
2017-09-14T02:41:34.774Z,0
2017-09-14T02:42:43.735Z,0
2017-09-14T02:43:52.695Z,0
2017-09-14T02:45:01.655Z,0
2017-09-14T02:46:10.630Z,0
2017-09-14T02:47:20.227Z,0
2017-09-14T02:48:29.505Z,0
2017-09-14T02:49:38.612Z,0
2017-09-14T02:50:47.256Z,0
2017-09-14T02:51:55.906Z,0
2017-09-14T02:53:05.241Z,0
2017-09-14T02:54:14.836Z,0
2017-09-14T02:55:24.100Z,0
2017-09-14T02:56:33.683Z,0
2017-09-14T02:57:42.643Z,0
2017-09-14T02:58:51.292Z,0
2017-09-14T03:00:00.249Z,0
2017-09-14T03:01:08.903Z,0
2017-09-14T03:02:17.859Z,0
2017-09-14T03:03:27.173Z,0
2017-09-14T03:04:36.452Z,0
2017-09-14T03:05:45.740Z,0
2017-09-14T03:06:55.476Z,0
2017-09-14T03:08:04.436Z,0
2017-09-14T03:09:13.394Z,0
2017-09-14T03:10:22.348Z,0
2017-09-14T03:11:31.939Z,0
2017-09-14T03:12:41.224Z,0
2017-09-14T03:13:50.205Z,0
2017-09-14T03:14:59.505Z,0
2017-09-14T03:16:08.465Z,0
2017-09-14T03:17:18.380Z,0
2017-09-14T03:18:27.503Z,0
2017-09-14T03:19:36.778Z,0
2017-09-14T03:20:45.434Z,0
2017-09-14T03:21:54.472Z,0
2017-09-14T03:23:03.441Z,0
2017-09-14T03:24:12.406Z,0
2017-09-14T03:25:21.380Z,0
2017-09-14T03:26:30.019Z,0
2017-09-14T03:27:38.667Z,0
2017-09-14T03:28:48.261Z,0
2017-09-14T03:29:56.906Z,0
2017-09-14T03:31:06.202Z,0
2017-09-14T03:32:14.845Z,0
2017-09-14T03:33:23.815Z,0
2017-09-14T03:34:33.091Z,0
2017-09-14T03:35:42.164Z,0
2017-09-14T03:36:51.134Z,0
2017-09-14T03:38:00.091Z,0
2017-09-14T03:39:08.735Z,0
2017-09-14T03:40:17.373Z,0
2017-09-14T03:41:26.974Z,0
2017-09-14T03:42:35.621Z,0
2017-09-14T03:43:44.587Z,0
2017-09-14T03:44:53.231Z,0
2017-09-14T03:46:01.883Z,0
2017-09-14T03:47:11.150Z,0
2017-09-14T03:48:21.065Z,0
2017-09-14T03:49:30.659Z,0
2017-09-14T03:50:39.939Z,0
2017-09-14T03:51:49.249Z,0
2017-09-14T03:52:59.215Z,0
2017-09-14T03:54:07.875Z,0
2017-09-14T03:55:16.532Z,0
2017-09-14T03:56:25.180Z,0
2017-09-14T03:57:33.845Z,0
2017-09-14T03:58:42.821Z,0
2017-09-14T03:59:51.457Z,0
2017-09-14T04:01:00.414Z,0
2017-09-14T04:02:10.319Z,0
2017-09-14T04:03:19.590Z,0
2017-09-14T04:04:28.709Z,0
2017-09-14T04:05:38.000Z,0
2017-09-14T04:06:47.595Z,0
2017-09-14T04:07:57.190Z,0
2017-09-14T04:09:06.144Z,0
2017-09-14T04:10:15.416Z,0
2017-09-14T04:11:24.691Z,0
2017-09-14T04:12:34.017Z,0
2017-09-14T04:13:43.292Z,0
2017-09-14T04:14:52.251Z,0
2017-09-14T04:16:00.901Z,0
2017-09-14T04:17:10.495Z,0
2017-09-14T04:18:19.468Z,0
2017-09-14T04:19:28.425Z,0
2017-09-14T04:20:38.004Z,0
2017-09-14T04:21:46.997Z,0
2017-09-14T04:22:56.277Z,0
2017-09-14T04:24:05.242Z,0
2017-09-14T04:25:14.194Z,0
2017-09-14T04:26:23.152Z,0
2017-09-14T04:27:32.437Z,0
2017-09-14T04:28:41.400Z,0
2017-09-14T04:29:50.357Z,0
2017-09-14T04:30:59.685Z,0
2017-09-14T04:32:08.334Z,0
2017-09-14T04:33:17.644Z,0
2017-09-14T04:34:26.606Z,0
2017-09-14T04:35:36.196Z,0
2017-09-14T04:36:45.159Z,0
2017-09-14T04:37:54.743Z,0
2017-09-14T04:39:04.336Z,0
2017-09-14T04:40:13.303Z,0
2017-09-14T04:41:21.946Z,0
2017-09-14T04:42:30.906Z,0
2017-09-14T04:43:39.902Z,0
2017-09-14T04:44:48.880Z,0
2017-09-14T04:45:57.842Z,0
2017-09-14T04:47:06.829Z,0
2017-09-14T04:48:15.806Z,4
2017-09-14T04:49:24.458Z,4
2017-09-14T04:50:33.766Z,4
2017-09-14T04:51:43.055Z,4
2017-09-14T04:52:52.347Z,8
2017-09-14T04:54:01.371Z,12
2017-09-14T04:55:10.409Z,12
2017-09-14T04:56:19.842Z,12
2017-09-14T04:57:28.810Z,16
2017-09-14T04:58:37.822Z,16
2017-09-14T04:59:47.731Z,16
2017-09-14T05:00:56.373Z,20
2017-09-14T05:02:05.962Z,20
2017-09-14T05:03:14.919Z,24
2017-09-14T05:04:23.909Z,28
2017-09-14T05:05:32.556Z,28
2017-09-14T05:06:41.883Z,32
2017-09-14T05:07:51.198Z,36
2017-09-14T05:09:00.188Z,36
2017-09-14T05:10:09.780Z,28
2017-09-14T05:11:18.741Z,28
2017-09-14T05:12:27.709Z,28
2017-09-14T05:13:36.519Z,28
2017-09-14T05:14:45.482Z,28
2017-09-14T05:15:55.094Z,32
2017-09-14T05:17:03.757Z,32
2017-09-14T05:18:12.739Z,36
2017-09-14T05:19:21.398Z,44
2017-09-14T05:20:30.061Z,44
2017-09-14T05:21:39.345Z,40
2017-09-14T05:22:47.999Z,40
2017-09-14T05:23:57.635Z,40
2017-09-14T05:25:06.645Z,40
2017-09-14T05:26:15.621Z,48
2017-09-14T05:27:24.681Z,48
2017-09-14T05:28:34.070Z,44
2017-09-14T05:29:43.107Z,44
2017-09-14T05:30:52.523Z,44
2017-09-14T05:32:02.130Z,36
2017-09-14T05:33:11.403Z,36
2017-09-14T05:34:20.676Z,40
2017-09-14T05:35:30.086Z,48
2017-09-14T05:36:38.749Z,56
2017-09-14T05:37:47.442Z,48
2017-09-14T05:38:57.362Z,44
2017-09-14T05:40:06.648Z,52
2017-09-14T05:41:15.680Z,60
2017-09-14T05:42:25.177Z,72
2017-09-14T05:43:34.159Z,72
2017-09-14T05:44:42.852Z,72
2017-09-14T05:45:52.180Z,72
2017-09-14T05:47:02.140Z,96
2017-09-14T05:48:10.793Z,68
2017-09-14T05:49:19.462Z,56
2017-09-14T05:50:29.079Z,88
2017-09-14T05:51:38.408Z,84
2017-09-14T05:52:47.060Z,56
2017-09-14T05:53:55.811Z,44
2017-09-14T05:55:05.137Z,64
2017-09-14T05:56:13.879Z,68
2017-09-14T05:57:23.160Z,68
2017-09-14T05:58:32.438Z,92
2017-09-14T05:59:41.561Z,128
2017-09-14T06:00:50.863Z,168
2017-09-14T06:02:00.800Z,180
2017-09-14T06:03:09.788Z,208
2017-09-14T06:04:18.823Z,272
2017-09-14T06:05:27.566Z,256
2017-09-14T06:06:36.560Z,176
2017-09-14T06:07:45.518Z,148
2017-09-14T06:08:55.460Z,128
2017-09-14T06:10:05.158Z,96
2017-09-14T06:11:14.134Z,92
2017-09-14T06:12:24.043Z,88
2017-09-14T06:13:33.438Z,108
2017-09-14T06:14:42.153Z,92
2017-09-14T06:15:51.459Z,112
2017-09-14T06:17:00.788Z,152
2017-09-14T06:18:10.062Z,224
2017-09-14T06:19:19.727Z,300
2017-09-14T06:20:29.006Z,236
2017-09-14T06:21:38.418Z,144
2017-09-14T06:22:47.378Z,120
2017-09-14T06:23:56.333Z,112
2017-09-14T06:25:05.630Z,104
2017-09-14T06:26:14.971Z,124
2017-09-14T06:27:23.955Z,152
2017-09-14T06:28:33.295Z,168
2017-09-14T06:29:42.064Z,192
2017-09-14T06:30:51.065Z,224
2017-09-14T06:32:00.065Z,240
2017-09-14T06:33:09.896Z,232
2017-09-14T06:34:18.992Z,196
2017-09-14T06:35:28.312Z,140
2017-09-14T06:36:37.915Z,120
2017-09-14T06:37:47.279Z,140
2017-09-14T06:38:55.989Z,232
2017-09-14T06:40:05.698Z,292
2017-09-14T06:41:14.755Z,252
2017-09-14T06:42:23.755Z,272
2017-09-14T06:43:32.750Z,352
2017-09-14T06:44:41.484Z,368
2017-09-14T06:45:50.629Z,436
2017-09-14T06:46:59.968Z,876
2017-09-14T06:48:08.958Z,1600
2017-09-14T06:49:17.966Z,1880
2017-09-14T06:50:26.950Z,1988
2017-09-14T06:51:36.067Z,1452
2017-09-14T06:52:45.065Z,1976
2017-09-14T06:53:53.734Z,1460
2017-09-14T06:55:02.731Z,900
2017-09-14T06:56:11.401Z,1048
2017-09-14T06:57:35.285Z,940
2017-09-14T06:58:44.611Z,732
2017-09-14T06:59:53.668Z,616
2017-09-14T07:01:02.766Z,696
2017-09-14T07:02:11.435Z,732
2017-09-14T07:03:20.565Z,688
2017-09-14T07:04:30.172Z,584
2017-09-14T07:05:39.159Z,512
2017-09-14T07:06:48.131Z,396
2017-09-14T07:07:56.817Z,320
2017-09-14T07:09:06.588Z,352
2017-09-14T07:10:15.556Z,364
2017-09-14T07:11:24.842Z,332
2017-09-14T07:12:34.445Z,268
2017-09-14T07:13:44.361Z,220
2017-09-14T07:14:53.174Z,240
2017-09-14T07:16:02.791Z,356
2017-09-14T07:17:12.704Z,388
2017-09-14T07:18:22.319Z,356
2017-09-14T07:19:31.590Z,336
2017-09-14T07:20:41.194Z,372
2017-09-14T07:21:50.180Z,392
2017-09-14T07:22:59.155Z,360
2017-09-14T07:24:07.806Z,384
2017-09-14T07:25:16.472Z,380
2017-09-14T07:26:25.773Z,432
2017-09-14T07:27:34.429Z,488
2017-09-14T07:28:43.421Z,504
2017-09-14T07:29:52.397Z,464
2017-09-14T07:31:01.374Z,508
2017-09-14T07:32:10.388Z,560
2017-09-14T07:33:19.360Z,712
2017-09-14T07:34:28.643Z,864
2017-09-14T07:35:38.556Z,908
2017-09-14T07:36:47.528Z,792
2017-09-14T07:37:56.340Z,688
2017-09-14T07:39:05.961Z,704
2017-09-14T07:40:14.926Z,700
2017-09-14T07:41:23.910Z,752
2017-09-14T07:42:32.887Z,724
2017-09-14T07:43:42.586Z,736
2017-09-14T07:44:51.242Z,700
2017-09-14T07:45:59.893Z,592
2017-09-14T07:47:09.496Z,552
2017-09-14T07:48:18.473Z,548
2017-09-14T07:49:27.604Z,612
2017-09-14T07:50:36.580Z,668
2017-09-14T07:51:45.887Z,708
2017-09-14T07:52:54.861Z,712
2017-09-14T07:54:04.453Z,656
2017-09-14T07:55:13.120Z,696
2017-09-14T07:56:23.044Z,764
2017-09-14T07:57:32.035Z,620
2017-09-14T07:58:41.641Z,596
2017-09-14T07:59:50.293Z,716
2017-09-14T08:00:59.741Z,748
2017-09-14T08:02:09.343Z,728
2017-09-14T08:03:18.303Z,836
2017-09-14T08:04:27.900Z,980
2017-09-14T08:05:37.176Z,1056
2017-09-14T08:06:46.470Z,1060
2017-09-14T08:07:55.749Z,1100
2017-09-14T08:09:04.414Z,1292
2017-09-14T08:10:13.392Z,1300
2017-09-14T08:11:22.364Z,1308
2017-09-14T08:12:31.015Z,1260
2017-09-14T08:13:39.991Z,1272
2017-09-14T08:14:49.280Z,1380
2017-09-14T08:15:58.247Z,1256
2017-09-14T08:17:07.528Z,1184
2017-09-14T08:18:16.795Z,1332
2017-09-14T08:19:25.772Z,1576
2017-09-14T08:20:35.048Z,1816
2017-09-14T08:21:44.341Z,1792
2017-09-14T08:22:53.007Z,1772
2017-09-14T08:24:02.768Z,1660
2017-09-14T08:25:11.741Z,1620
2017-09-14T08:26:20.700Z,1688
2017-09-14T08:27:29.354Z,1628
2017-09-14T08:28:38.020Z,1852
2017-09-14T08:29:47.298Z,2012
2017-09-14T08:30:55.959Z,1736
2017-09-14T08:32:05.243Z,1576
2017-09-14T08:33:14.215Z,1416
2017-09-14T08:34:23.175Z,1496
2017-09-14T08:35:32.777Z,1292
2017-09-14T08:36:42.089Z,1104
2017-09-14T08:37:51.069Z,776
2017-09-14T08:38:59.744Z,604
2017-09-14T08:40:09.030Z,996
2017-09-14T08:41:18.149Z,996
2017-09-14T08:42:27.173Z,1360
2017-09-14T08:43:36.146Z,1068
2017-09-14T08:44:45.425Z,828
2017-09-14T08:45:54.083Z,868
2017-09-14T08:47:03.510Z,1184
2017-09-14T08:48:12.491Z,2444
2017-09-14T08:49:22.410Z,1880
2017-09-14T08:50:31.069Z,1496
2017-09-14T08:51:40.354Z,1328
2017-09-14T08:52:49.331Z,1380
2017-09-14T08:53:58.018Z,1264
2017-09-14T08:55:07.307Z,1764
2017-09-14T08:56:15.965Z,3508
2017-09-14T08:57:24.925Z,3824
2017-09-14T08:58:33.684Z,3420
2017-09-14T08:59:43.295Z,2612
2017-09-14T09:00:52.895Z,1388
2017-09-14T09:02:02.202Z,1896
2017-09-14T09:03:11.482Z,2604
2017-09-14T09:04:20.543Z,2824
2017-09-14T09:05:29.834Z,2800
2017-09-14T09:06:39.131Z,2024
2017-09-14T09:07:48.415Z,1456
2017-09-14T09:08:57.380Z,936
2017-09-14T09:10:06.370Z,1076
2017-09-14T09:11:15.030Z,800
2017-09-14T09:12:24.023Z,1028
2017-09-14T09:13:33.316Z,984
2017-09-14T09:14:42.605Z,1008
2017-09-14T09:15:51.888Z,1168
2017-09-14T09:17:00.869Z,1216
2017-09-14T09:18:09.833Z,1700
2017-09-14T09:19:19.132Z,1964
2017-09-14T09:20:27.798Z,1880
2017-09-14T09:21:36.915Z,2184
2017-09-14T09:22:45.578Z,1384
2017-09-14T09:23:54.230Z,1060
2017-09-14T09:25:03.522Z,1744
2017-09-14T09:26:12.180Z,1616
2017-09-14T09:27:21.646Z,1844
2017-09-14T09:28:30.975Z,2604
2017-09-14T09:29:40.894Z,2092
2017-09-14T09:30:49.874Z,1912
2017-09-14T09:31:59.176Z,2396
2017-09-14T09:33:08.144Z,2764
2017-09-14T09:34:16.803Z,2576
2017-09-14T09:35:25.780Z,2096
2017-09-14T09:36:35.046Z,2932
2017-09-14T09:37:44.013Z,2100
2017-09-14T09:38:53.302Z,2076
2017-09-14T09:40:03.256Z,2176
2017-09-14T09:41:12.863Z,1620
2017-09-14T09:42:21.827Z,1912
2017-09-14T09:43:30.856Z,1908
2017-09-14T09:44:40.447Z,2676
2017-09-14T09:45:50.054Z,2396
2017-09-14T09:46:59.055Z,1720
2017-09-14T09:48:08.332Z,1648
2017-09-14T09:49:17.299Z,2000
2017-09-14T09:50:26.693Z,2496
2017-09-14T09:51:35.969Z,3104
2017-09-14T09:52:45.250Z,3056
2017-09-14T09:53:54.555Z,3260
2017-09-14T09:55:03.527Z,3148
2017-09-14T09:56:12.183Z,2920
2017-09-14T09:57:20.847Z,2168
2017-09-14T09:58:30.460Z,2216
2017-09-14T09:59:39.117Z,2108
2017-09-14T10:00:48.721Z,2108
2017-09-14T10:01:58.618Z,2008
2017-09-14T10:03:07.579Z,1788
2017-09-14T10:04:16.230Z,1316
2017-09-14T10:05:25.202Z,1672
2017-09-14T10:06:34.167Z,2296
2017-09-14T10:07:42.879Z,1904
2017-09-14T10:08:51.532Z,1680
2017-09-14T10:10:01.439Z,1604
2017-09-14T10:11:10.725Z,1528
2017-09-14T10:12:20.006Z,1728
2017-09-14T10:13:28.974Z,2244
2017-09-14T10:14:37.945Z,2388
2017-09-14T10:15:46.932Z,1612
2017-09-14T10:16:55.916Z,960
2017-09-14T10:18:05.207Z,972
2017-09-14T10:19:14.178Z,992
2017-09-14T10:20:23.139Z,968
2017-09-14T10:21:32.425Z,1068
2017-09-14T10:22:41.394Z,936
2017-09-14T10:23:50.377Z,1136
2017-09-14T10:24:59.495Z,1392
2017-09-14T10:26:08.801Z,1168
2017-09-14T10:27:17.767Z,1236
2017-09-14T10:28:27.895Z,1460
2017-09-14T10:29:36.695Z,1700
2017-09-14T10:30:46.472Z,2172
2017-09-14T10:31:55.179Z,2152
2017-09-14T10:33:04.545Z,1752
2017-09-14T10:34:14.226Z,2092
2017-09-14T10:35:23.932Z,2564
2017-09-14T10:36:33.172Z,3088
2017-09-14T10:37:42.166Z,2788
2017-09-14T10:38:51.847Z,1624
2017-09-14T10:40:00.827Z,964
2017-09-14T10:41:09.804Z,1108
2017-09-14T10:42:19.114Z,1536
2017-09-14T10:43:27.759Z,1612
2017-09-14T10:44:36.754Z,1356
2017-09-14T10:45:45.737Z,1720
2017-09-14T10:46:55.655Z,1668
2017-09-14T10:48:04.748Z,1808
2017-09-14T10:49:13.416Z,1616
2017-09-14T10:50:22.446Z,1248
2017-09-14T10:51:32.051Z,1428
2017-09-14T10:52:41.052Z,1516
2017-09-14T10:53:49.870Z,1356
2017-09-14T10:54:59.161Z,804
2017-09-14T10:56:07.816Z,912
2017-09-14T10:57:16.801Z,1000
2017-09-14T10:58:26.093Z,1284
2017-09-14T10:59:35.251Z,1568
2017-09-14T11:00:44.531Z,1908
2017-09-14T11:01:53.268Z,2640
2017-09-14T11:03:02.231Z,3256
2017-09-14T11:04:11.207Z,3176
2017-09-14T11:05:20.179Z,2404
2017-09-14T11:06:29.780Z,2740
2017-09-14T11:07:38.443Z,2760
2017-09-14T11:08:47.436Z,2076
2017-09-14T11:09:56.101Z,2504
2017-09-14T11:11:05.761Z,2328
2017-09-14T11:12:14.730Z,2000
2017-09-14T11:13:24.022Z,2672
2017-09-14T11:14:33.635Z,2568
2017-09-14T11:15:42.935Z,3128
2017-09-14T11:16:52.361Z,2000
2017-09-14T11:18:01.015Z,2488
2017-09-14T11:19:09.980Z,2200
2017-09-14T11:20:18.951Z,2016
2017-09-14T11:21:27.612Z,1928
2017-09-14T11:22:36.896Z,1640
2017-09-14T11:23:46.505Z,1824
2017-09-14T11:24:55.781Z,1028
2017-09-14T11:26:05.391Z,900
2017-09-14T11:27:14.037Z,1096
2017-09-14T11:28:22.692Z,1456
2017-09-14T11:29:32.289Z,1084
2017-09-14T11:30:40.977Z,1172
2017-09-14T11:31:50.255Z,1216
2017-09-14T11:32:59.244Z,836
2017-09-14T11:34:08.643Z,1152
2017-09-14T11:35:17.646Z,1772
2017-09-14T11:36:26.613Z,1948
2017-09-14T11:37:35.574Z,2308
2017-09-14T11:38:44.876Z,2084
2017-09-14T11:39:54.165Z,1940
2017-09-14T11:41:02.832Z,2044
2017-09-14T11:42:11.796Z,2096
2017-09-14T11:43:20.766Z,2388
2017-09-14T11:44:29.730Z,1828
2017-09-14T11:45:39.379Z,1112
2017-09-14T11:46:48.366Z,928
2017-09-14T11:47:57.348Z,1264
2017-09-14T11:49:06.310Z,1744
2017-09-14T11:50:15.599Z,960
2017-09-14T11:51:24.873Z,760
2017-09-14T11:52:34.471Z,1396
2017-09-14T11:53:43.443Z,944
2017-09-14T11:54:52.410Z,832
2017-09-14T11:56:01.068Z,852
2017-09-14T11:57:09.809Z,756
2017-09-14T11:58:19.102Z,840
2017-09-14T11:59:28.717Z,680
2017-09-14T12:00:37.687Z,956
2017-09-14T12:01:46.985Z,1132
2017-09-14T12:02:55.979Z,972
2017-09-14T12:04:05.271Z,1236
2017-09-14T12:05:14.876Z,1792
2017-09-14T12:06:24.179Z,1612
2017-09-14T12:07:33.459Z,1120
2017-09-14T12:08:42.579Z,1476
2017-09-14T12:09:51.554Z,1672
2017-09-14T12:11:00.518Z,1844
2017-09-14T12:12:09.808Z,2464
2017-09-14T12:13:19.090Z,1796
2017-09-14T12:14:27.845Z,1876
2017-09-14T12:15:36.514Z,1396
2017-09-14T12:16:46.144Z,1368
2017-09-14T12:17:55.112Z,1724
2017-09-14T12:19:03.768Z,1788
2017-09-14T12:20:12.884Z,1156
2017-09-14T12:21:21.860Z,872
2017-09-14T12:22:31.174Z,1040
2017-09-14T12:23:40.477Z,1416
2017-09-14T12:24:50.079Z,1892
2017-09-14T12:25:59.978Z,1704
2017-09-14T12:27:08.986Z,1880
2017-09-14T12:28:17.942Z,1884
2017-09-14T12:29:27.243Z,1152
2017-09-14T12:30:36.531Z,808
2017-09-14T12:31:45.847Z,424
2017-09-14T12:32:54.819Z,408
2017-09-14T12:34:03.787Z,312
2017-09-14T12:35:13.076Z,432
2017-09-14T12:36:22.045Z,716
2017-09-14T12:37:31.200Z,1168
2017-09-14T12:38:40.245Z,1644
2017-09-14T12:39:49.280Z,2000
2017-09-14T12:40:58.890Z,2168
2017-09-14T12:42:07.542Z,1968
2017-09-14T12:43:16.670Z,1828
2017-09-14T12:44:25.640Z,1776
2017-09-14T12:45:34.916Z,1756
2017-09-14T12:46:43.562Z,1608
2017-09-14T12:47:52.557Z,1344
2017-09-14T12:49:01.316Z,1352
2017-09-14T12:50:09.978Z,1508
2017-09-14T12:51:19.589Z,1720
2017-09-14T12:52:28.887Z,1884
2017-09-14T12:53:38.482Z,1960
2017-09-14T12:54:47.750Z,2052
2017-09-14T12:55:56.414Z,2044
2017-09-14T12:57:05.400Z,2132
2017-09-14T12:58:14.694Z,2160
2017-09-14T12:59:23.659Z,2092
2017-09-14T13:00:32.980Z,1872
2017-09-14T13:01:41.652Z,1592
2017-09-14T13:02:50.627Z,1316
2017-09-14T13:03:59.601Z,1136
2017-09-14T13:05:08.904Z,1004
2017-09-14T13:06:17.880Z,772
2017-09-14T13:07:27.474Z,748
2017-09-14T13:08:36.469Z,764
2017-09-14T13:09:45.507Z,872
2017-09-14T13:10:54.470Z,804
2017-09-14T13:12:03.428Z,1268
2017-09-14T13:13:13.345Z,1444
2017-09-14T13:14:22.622Z,1036
2017-09-14T13:15:31.606Z,1372
2017-09-14T13:16:41.201Z,1424
2017-09-14T13:17:50.337Z,1464
2017-09-14T13:18:59.299Z,1608
2017-09-14T13:20:08.291Z,1352
2017-09-14T13:21:17.266Z,1340
2017-09-14T13:22:25.937Z,1596
2017-09-14T13:23:35.382Z,1264
2017-09-14T13:24:44.361Z,712
2017-09-14T13:25:53.015Z,1088
2017-09-14T13:27:02.611Z,544
2017-09-14T13:28:11.272Z,312
2017-09-14T13:29:20.660Z,440
2017-09-14T13:30:29.311Z,732
2017-09-14T13:31:38.272Z,1228
2017-09-14T13:32:47.248Z,2144
2017-09-14T13:33:56.206Z,2208
2017-09-14T13:35:05.504Z,2000
2017-09-14T13:36:15.104Z,2024
2017-09-14T13:37:23.767Z,2120
2017-09-14T13:38:32.422Z,1928
2017-09-14T13:39:41.402Z,1860
2017-09-14T13:40:50.379Z,1852
2017-09-14T13:41:59.693Z,1880
2017-09-14T13:43:08.688Z,1872
2017-09-14T13:44:17.340Z,1860
2017-09-14T13:45:26.623Z,1908
2017-09-14T13:46:35.999Z,1924
2017-09-14T13:47:44.957Z,1920
2017-09-14T13:48:54.242Z,1864
2017-09-14T13:50:03.209Z,1828
2017-09-14T13:51:12.819Z,1792
2017-09-14T13:52:21.476Z,1784
2017-09-14T13:53:31.072Z,1756
2017-09-14T13:54:40.696Z,1748
2017-09-14T13:55:50.287Z,1776
2017-09-14T13:56:59.265Z,1776
2017-09-14T13:58:08.876Z,1808
2017-09-14T13:59:17.847Z,1920
2017-09-14T14:00:27.455Z,1944
2017-09-14T14:01:36.768Z,1904
2017-09-14T14:02:45.420Z,1840
2017-09-14T14:03:54.417Z,1868
2017-09-14T14:05:03.392Z,1888
2017-09-14T14:06:12.990Z,1868
2017-09-14T14:07:21.643Z,1816
2017-09-14T14:08:30.935Z,1764
2017-09-14T14:09:40.217Z,1732
2017-09-14T14:10:49.216Z,1680
2017-09-14T14:11:58.180Z,1688
2017-09-14T14:13:07.479Z,1700
2017-09-14T14:14:16.776Z,1696
2017-09-14T14:15:25.741Z,1652
2017-09-14T14:16:35.055Z,1548
2017-09-14T14:17:44.020Z,1496
2017-09-14T14:18:53.314Z,1460
2017-09-14T14:20:02.601Z,1460
2017-09-14T14:21:11.733Z,1296
2017-09-14T14:22:21.048Z,1104
2017-09-14T14:23:30.012Z,1068
2017-09-14T14:24:39.310Z,1080
2017-09-14T14:25:47.992Z,1016
2017-09-14T14:26:56.957Z,996
2017-09-14T14:28:06.565Z,960
2017-09-14T14:29:15.247Z,928
2017-09-14T14:30:24.543Z,912
2017-09-14T14:31:34.143Z,908
2017-09-14T14:32:42.800Z,920
2017-09-14T14:33:51.771Z,932
2017-09-14T14:35:00.749Z,892
2017-09-14T14:36:10.357Z,856
2017-09-14T14:37:19.335Z,848
2017-09-14T14:38:28.194Z,832
2017-09-14T14:39:37.478Z,756
2017-09-14T14:40:47.086Z,644
2017-09-14T14:41:57.055Z,772
2017-09-14T14:43:05.980Z,848
2017-09-14T14:44:14.797Z,880
2017-09-14T14:45:23.473Z,880
2017-09-14T14:46:32.464Z,872
2017-09-14T14:47:41.432Z,796
2017-09-14T14:48:50.724Z,816
2017-09-14T14:50:00.420Z,784
2017-09-14T14:51:09.704Z,740
2017-09-14T14:52:18.993Z,656
2017-09-14T14:53:27.659Z,688
2017-09-14T14:54:36.963Z,688
2017-09-14T14:55:45.924Z,592
2017-09-14T14:56:54.894Z,672
2017-09-14T14:58:03.953Z,528
2017-09-14T14:59:13.249Z,580
2017-09-14T15:00:22.218Z,508
2017-09-14T15:01:31.197Z,556
2017-09-14T15:02:40.483Z,584
2017-09-14T15:03:49.475Z,688
2017-09-14T15:04:58.803Z,632
2017-09-14T15:06:08.403Z,548
2017-09-14T15:07:17.553Z,436
2017-09-14T15:08:26.529Z,328
2017-09-14T15:09:35.834Z,416
2017-09-14T15:10:45.104Z,400
2017-09-14T15:11:55.019Z,480
2017-09-14T15:13:04.141Z,564
2017-09-14T15:14:13.769Z,472
2017-09-14T15:15:23.055Z,380
2017-09-14T15:16:32.671Z,364
2017-09-14T15:17:41.341Z,292
2017-09-14T15:18:50.015Z,232
2017-09-14T15:19:59.008Z,204
2017-09-14T15:21:07.702Z,252
2017-09-14T15:22:16.690Z,256
2017-09-14T15:23:26.641Z,456
2017-09-14T15:24:35.910Z,456
2017-09-14T15:25:45.525Z,344
2017-09-14T15:26:54.817Z,484
2017-09-14T15:28:04.131Z,304
2017-09-14T15:29:13.429Z,352
2017-09-14T15:30:23.184Z,220
2017-09-14T15:31:32.160Z,308
2017-09-14T15:32:40.827Z,408
2017-09-14T15:33:49.559Z,192
2017-09-14T15:34:58.221Z,172
2017-09-14T15:36:07.670Z,264
2017-09-14T15:37:16.330Z,288
2017-09-14T15:38:25.301Z,332
2017-09-14T15:39:33.959Z,316
2017-09-14T15:40:43.249Z,304
2017-09-14T15:41:52.375Z,252
2017-09-14T15:43:01.034Z,248
2017-09-14T15:44:09.756Z,168
2017-09-14T15:45:18.719Z,220
2017-09-14T15:46:28.006Z,164
2017-09-14T15:47:38.013Z,152
2017-09-14T15:48:47.664Z,220
2017-09-14T15:49:56.641Z,252
2017-09-14T15:51:05.931Z,228
2017-09-14T15:52:15.224Z,224
2017-09-14T15:53:25.325Z,216
2017-09-14T15:54:34.298Z,216
2017-09-14T15:55:43.918Z,228
2017-09-14T15:56:52.894Z,236
2017-09-14T15:58:01.874Z,236
2017-09-14T15:59:10.527Z,256
2017-09-14T16:00:19.196Z,268
2017-09-14T16:01:28.484Z,264
2017-09-14T16:02:37.768Z,248
2017-09-14T16:03:46.742Z,224